Aérodrome :
LOGIN :

S'inscrire | Disclaimer

   EN    FR    IT 

 










Légende :    VFR   VFR Marginal   IFR   IFR Intensif   IFR Très Intensif
Visi : 
Plafond : 
>= 8 km
>= 3000ft
5 à 8 km
1000 à 3000 ft
1500m à 5 km
500 à 1000 ft
800 à 1500m
200 à 500 ft
< 800m
< 200 ft
Symboles :   Orages  Brouillard  Fortes neiges  Fortes précipitations  Vent > 20 kt
SIGMETs :   Divers  Orages  Givrage  Turbulence  Onde Orograph.  Cendres Volcan.







- Altitude de l'aérodrome : 90 ft
- Code IATA : NTE
- Voir les cartes d'approche


LFRS - Nantes

DERNIER METAR :
  • 241000Z AUTO 25007KT 180V300 9999 FEW022 BKN060 22/14 Q1020 NOSIG

METARs EXPIRÉS :
  • 240930Z AUTO 27009KT 9999 FEW025 SCT041 BKN052 21/14 Q1021 NOSIG
  • 240900Z AUTO 26009KT 220V300 9999 BKN027 OVC062 21/14 Q1021 NOSIG
  • 240830Z AUTO 24008KT 210V270 9999 BKN027 BKN032 BKN039 21/14 Q1021 NOSIG
  • 240800Z AUTO 23006KT 170V300 9999 FEW020 SCT025 BKN049 21/15 Q1021 NOSIG
  • 240730Z AUTO 21005KT 180V260 9999 SCT015 BKN020 BKN034 20/16 Q1021 NOSIG

TAF TAF LFRS
Valide du 23 à 18h jusqu'au 25 à 00h UTC


231700Z 2318/2424 28011KT CAVOK
BECMG 2403/2405 VRB03KT BKN012
BECMG 2407/2409 BKN018
BECMG 2409/2412 26010KT SCT030
ATIS : +33 2 40 05 12 74
Pas de NOTAMs connus pour ce terrain.



MET'MAP, la Météo Aéronautique d'un coup d'oeil ! - Copyright ORBIFLY Décembre 2007 - Disclaimer

ORBIFLY MET'MAP TEAM :

Programmation & Développement : Alexandra Zaïnal
Conception & Développement : Baudouin d'Aumeries
Co-Programmation & Développement : Marc-Olivier Méhu
Soutien technique & logistique : Manuel Goepfert

Contact : metmap@orbifly.com




SOURCES & CREDITS :

   NOAA